createdAt,value
2022-09-28T00:00:17.363Z,13.04
2022-09-28T00:02:45.149Z,12.71
2022-09-28T00:05:14.448Z,13.11
2022-09-28T00:07:42.671Z,12.13
2022-09-28T00:10:11.024Z,14.12
2022-09-28T00:12:39.458Z,12.76
2022-09-28T00:15:08.087Z,13.69
2022-09-28T00:17:36.486Z,14.10
2022-09-28T00:20:05.824Z,13.77
2022-09-28T00:22:34.944Z,13.03
2022-09-28T00:25:02.704Z,14.10
2022-09-28T00:27:30.390Z,14.10
2022-09-28T00:29:58.122Z,11.93
2022-09-28T00:32:26.625Z,14.05
2022-09-28T00:34:55.092Z,12.24
2022-09-28T00:37:22.762Z,12.86
2022-09-28T00:39:51.877Z,12.46
2022-09-28T00:42:21.348Z,13.08
2022-09-28T00:44:49.752Z,12.14
2022-09-28T00:47:38.275Z,13.01
2022-09-28T00:50:08.199Z,13.19
2022-09-28T00:52:39.021Z,13.37
2022-09-28T00:55:09.879Z,14.09
2022-09-28T00:57:37.670Z,12.78
2022-09-28T01:00:06.627Z,12.37
2022-09-28T01:02:34.397Z,13.14
2022-09-28T01:05:02.282Z,12.18
2022-09-28T01:07:30.218Z,11.30
2022-09-28T01:09:58.088Z,12.96
2022-09-28T01:12:27.319Z,12.51
2022-09-28T01:14:55.255Z,13.64
2022-09-28T01:17:25.376Z,13.47
2022-09-28T01:20:26.779Z,12.21
2022-09-28T01:23:19.118Z,13.06
2022-09-28T01:25:51.866Z,12.82
2022-09-28T01:28:21.992Z,12.03
2022-09-28T01:30:55.135Z,14.08
2022-09-28T01:33:24.279Z,12.14
2022-09-28T01:35:53.907Z,13.40
2022-09-28T01:38:23.259Z,13.47
2022-09-28T01:40:51.079Z,12.89
2022-09-28T01:43:20.339Z,13.40
2022-09-28T01:45:50.510Z,13.36
2022-09-28T01:48:20.500Z,11.42
2022-09-28T01:50:48.567Z,12.88
2022-09-28T01:53:18.217Z,12.02
2022-09-28T01:55:46.703Z,13.95
2022-09-28T01:58:16.229Z,13.01
2022-09-28T02:00:45.854Z,11.92
2022-09-28T02:03:16.917Z,13.45
2022-09-28T02:05:46.831Z,11.85
2022-09-28T02:08:15.681Z,12.91
2022-09-28T02:10:44.925Z,12.11
2022-09-28T02:13:14.025Z,11.79
2022-09-28T02:15:43.791Z,13.96
2022-09-28T02:18:11.690Z,14.20
2022-09-28T02:20:41.107Z,13.84
2022-09-28T02:23:09.004Z,12.83
2022-09-28T02:25:40.171Z,12.32
2022-09-28T02:28:08.882Z,13.49
2022-09-28T02:30:37.883Z,12.56
2022-09-28T02:33:08.912Z,13.94
2022-09-28T02:35:36.938Z,14.14
2022-09-28T02:38:06.086Z,11.36
2022-09-28T02:40:35.648Z,14.11
2022-09-28T02:43:07.773Z,12.95
2022-09-28T02:45:42.599Z,12.96
2022-09-28T02:48:27.194Z,14.08
2022-09-28T02:51:07.174Z,12.13
2022-09-28T02:53:46.045Z,12.64
2022-09-28T02:56:27.307Z,14.05
2022-09-28T02:58:58.275Z,14.11
2022-09-28T03:01:29.564Z,12.55
2022-09-28T03:03:59.207Z,14.12
2022-09-28T03:06:28.485Z,12.78
2022-09-28T03:09:00.402Z,12.73
2022-09-28T03:11:29.972Z,13.21
2022-09-28T03:13:57.951Z,12.35
2022-09-28T03:16:27.453Z,11.05
2022-09-28T03:18:55.314Z,13.46
2022-09-28T03:21:23.096Z,13.08
2022-09-28T03:23:50.816Z,14.13
2022-09-28T03:26:20.158Z,11.69
2022-09-28T03:28:48.017Z,14.12
2022-09-28T03:31:15.890Z,13.42
2022-09-28T03:33:46.933Z,13.95
2022-09-28T03:36:15.159Z,13.92
2022-09-28T03:38:43.010Z,14.14
2022-09-28T03:41:10.966Z,13.20
2022-09-28T03:43:40.230Z,12.46
2022-09-28T03:46:10.289Z,11.29
2022-09-28T03:48:38.505Z,12.64
2022-09-28T03:51:09.291Z,11.63
2022-09-28T03:53:43.359Z,13.43
2022-09-28T03:56:13.369Z,12.18
2022-09-28T03:58:44.622Z,13.44
2022-09-28T04:01:17.828Z,13.17
2022-09-28T04:03:56.028Z,13.43
2022-09-28T04:06:24.999Z,11.58
2022-09-28T04:08:54.114Z,12.81
2022-09-28T04:11:21.922Z,13.53
2022-09-28T04:13:51.359Z,12.83
2022-09-28T04:16:25.346Z,13.40
2022-09-28T04:18:54.275Z,12.15
2022-09-28T04:21:22.480Z,13.10
2022-09-28T04:23:50.285Z,14.05
2022-09-28T04:26:20.546Z,13.34
2022-09-28T04:29:11.051Z,13.34
2022-09-28T04:31:40.613Z,12.74
2022-09-28T04:34:08.507Z,11.35
2022-09-28T04:36:36.508Z,11.65
2022-09-28T04:39:05.043Z,11.76
2022-09-28T04:41:41.741Z,12.52
2022-09-28T04:46:45.988Z,13.93
2022-09-28T04:49:13.795Z,13.94
2022-09-28T04:51:41.471Z,13.95
2022-09-28T04:54:09.196Z,13.95
2022-09-28T04:56:36.927Z,13.95
2022-09-28T04:59:06.134Z,13.74
2022-09-28T05:01:34.004Z,13.97
2022-09-28T05:04:03.547Z,13.97
2022-09-28T05:06:32.220Z,13.83
2022-09-28T05:08:59.885Z,13.99
2022-09-28T05:11:27.656Z,14.00
2022-09-28T05:13:55.530Z,14.02
2022-09-28T05:16:25.288Z,14.02
2022-09-28T05:18:56.260Z,14.04
2022-09-28T05:21:26.441Z,14.07
2022-09-28T05:23:56.147Z,14.07
2022-09-28T05:26:23.977Z,14.03
2022-09-28T05:28:51.808Z,14.09
2022-09-28T05:31:20.721Z,14.07
2022-09-28T05:33:48.735Z,13.99
2022-09-28T05:36:16.298Z,14.09
2022-09-28T05:38:45.349Z,14.06
2022-09-28T05:41:13.079Z,14.12
2022-09-28T05:43:41.049Z,14.06
2022-09-28T05:46:08.981Z,14.15
2022-09-28T05:48:36.797Z,14.18
2022-09-28T05:51:04.647Z,14.18
2022-09-28T05:53:32.211Z,14.16
2022-09-28T05:56:01.724Z,14.05
2022-09-28T05:58:29.475Z,14.20
2022-09-28T06:00:57.601Z,14.20
2022-09-28T06:03:25.555Z,14.21
2022-09-28T06:05:53.271Z,14.21
2022-09-28T06:08:21.149Z,14.24
2022-09-28T06:10:48.949Z,14.22
2022-09-28T06:13:17.860Z,14.28
2022-09-28T06:15:46.205Z,14.33
2022-09-28T06:18:15.141Z,14.20
2022-09-28T06:20:43.978Z,14.36
2022-09-28T06:23:11.797Z,14.37
2022-09-28T06:25:39.465Z,14.39
2022-09-28T06:28:10.353Z,14.41
2022-09-28T06:30:39.801Z,14.41
2022-09-28T06:33:08.242Z,14.39
2022-09-28T06:35:36.529Z,14.43
2022-09-28T06:38:08.108Z,14.30
2022-09-28T06:40:39.437Z,14.38
2022-09-28T06:43:10.260Z,14.47
2022-09-28T06:45:39.735Z,14.46
2022-09-28T06:48:07.901Z,14.47
2022-09-28T06:50:37.441Z,14.47
2022-09-28T06:53:05.875Z,13.11
2022-09-28T06:55:33.777Z,14.28
2022-09-28T06:58:02.707Z,14.52
2022-09-28T07:00:31.123Z,14.55
2022-09-28T07:03:01.374Z,14.61
2022-09-28T07:05:29.612Z,14.50
2022-09-28T07:07:57.307Z,14.69
2022-09-28T07:10:25.235Z,14.63
2022-09-28T07:12:52.927Z,14.70
2022-09-28T07:15:20.590Z,14.69
2022-09-28T07:17:59.875Z,14.71
2022-09-28T07:20:31.425Z,14.74
2022-09-28T07:23:15.633Z,14.78
2022-09-28T07:25:49.543Z,14.78
2022-09-28T07:28:17.511Z,14.77
2022-09-28T07:30:45.411Z,14.77
2022-09-28T07:33:14.606Z,14.74
2022-09-28T07:35:50.727Z,14.69
2022-09-28T07:38:18.426Z,14.64
2022-09-28T07:41:07.858Z,14.66
2022-09-28T07:43:35.992Z,14.67
2022-09-28T07:46:09.262Z,14.65
2022-09-28T07:48:38.078Z,14.75
2022-09-28T07:51:08.016Z,14.54
2022-09-28T07:53:36.086Z,14.96
2022-09-28T07:56:08.573Z,15.02
2022-09-28T07:58:36.695Z,15.11
2022-09-28T08:01:05.921Z,15.17
2022-09-28T08:03:33.751Z,15.20
2022-09-28T08:06:01.988Z,15.18
2022-09-28T08:08:31.587Z,15.17
2022-09-28T08:10:59.375Z,15.01
2022-09-28T08:13:27.412Z,15.14
2022-09-28T08:15:55.574Z,15.12
2022-09-28T08:18:23.842Z,15.12
2022-09-28T08:21:10.676Z,15.13
2022-09-28T08:23:39.988Z,15.10
2022-09-28T08:26:12.086Z,15.07
2022-09-28T08:28:43.115Z,15.07
2022-09-28T08:31:12.025Z,15.08
2022-09-28T08:33:41.196Z,15.19
2022-09-28T08:36:10.646Z,15.24
2022-09-28T08:38:39.613Z,15.17
2022-09-28T08:41:12.912Z,15.34
2022-09-28T08:43:53.039Z,15.47
2022-09-28T08:46:25.031Z,15.47
2022-09-28T08:49:20.741Z,15.51
2022-09-28T08:51:46.052Z,15.69
2022-09-28T08:54:30.059Z,15.61
2022-09-28T08:57:00.213Z,15.64
2022-09-28T08:59:38.227Z,15.66
2022-09-28T09:02:06.007Z,15.83
2022-09-28T09:04:33.866Z,15.89
2022-09-28T09:07:13.551Z,15.93
2022-09-28T09:09:49.169Z,15.95
2022-09-28T09:12:20.483Z,16.00
2022-09-28T09:15:13.024Z,16.12
2022-09-28T09:17:45.605Z,16.08
2022-09-28T09:20:26.251Z,16.33
2022-09-28T09:22:59.740Z,16.46
2022-09-28T09:25:43.405Z,16.45
2022-09-28T09:28:53.108Z,16.71
2022-09-28T09:31:29.916Z,16.81
2022-09-28T09:34:20.069Z,16.98
2022-09-28T09:36:55.923Z,17.10
2022-09-28T09:39:30.888Z,17.08
2022-09-28T09:42:06.226Z,17.11
2022-09-28T09:44:48.702Z,17.08
2022-09-28T09:47:18.293Z,16.71
2022-09-28T09:49:47.119Z,16.89
2022-09-28T09:52:19.133Z,16.96
2022-09-28T09:54:48.769Z,16.89
2022-09-28T09:57:20.184Z,16.78
2022-09-28T09:59:48.458Z,16.58
2022-09-28T10:02:24.172Z,16.61
2022-09-28T10:04:53.190Z,16.11
2022-09-28T10:07:23.673Z,16.31
2022-09-28T10:09:51.793Z,16.44
2022-09-28T10:12:21.647Z,16.35
2022-09-28T10:14:49.544Z,16.31
2022-09-28T10:17:18.340Z,16.30
2022-09-28T10:19:45.928Z,16.24
2022-09-28T10:22:16.097Z,16.22
2022-09-28T10:24:46.203Z,16.13
2022-09-28T10:27:15.119Z,16.27
2022-09-28T10:29:50.641Z,16.38
2022-09-28T10:32:23.770Z,16.41
2022-09-28T10:34:52.120Z,16.42
2022-09-28T10:37:19.860Z,16.42
2022-09-28T10:39:49.752Z,16.40
2022-09-28T10:42:20.417Z,16.40
2022-09-28T10:47:25.396Z,16.46
2022-09-28T10:49:53.421Z,16.58
2022-09-28T10:52:46.204Z,16.71
2022-09-28T10:55:30.622Z,16.86
2022-09-28T10:57:58.212Z,17.43
2022-09-28T11:00:38.167Z,18.23
2022-09-28T11:03:07.155Z,18.49
2022-09-28T11:05:35.884Z,18.71
2022-09-28T11:08:05.905Z,18.67
2022-09-28T11:10:33.649Z,18.63
2022-09-28T11:13:02.238Z,18.53
2022-09-28T11:15:30.906Z,18.46
2022-09-28T11:17:58.580Z,18.36
2022-09-28T11:20:35.810Z,18.28
2022-09-28T11:23:18.526Z,18.17
2022-09-28T11:25:51.410Z,18.13
2022-09-28T11:28:23.733Z,18.03
2022-09-28T11:30:52.386Z,17.88
2022-09-28T11:33:20.846Z,17.79
2022-09-28T11:35:51.483Z,17.88
2022-09-28T11:38:26.355Z,17.74
2022-09-28T11:41:00.767Z,18.01
2022-09-28T11:43:40.822Z,18.08
2022-09-28T11:46:10.451Z,18.07
2022-09-28T11:48:41.579Z,17.97
2022-09-28T11:51:13.122Z,17.60
2022-09-28T11:53:41.295Z,17.74
2022-09-28T11:56:13.518Z,17.40
2022-09-28T11:58:41.889Z,17.76
2022-09-28T12:01:18.581Z,17.76
2022-09-28T12:03:49.081Z,17.72
2022-09-28T12:06:19.699Z,17.82
2022-09-28T12:08:48.390Z,17.87
2022-09-28T12:11:18.141Z,17.96
2022-09-28T12:13:47.819Z,18.03
2022-09-28T12:16:45.286Z,18.14
2022-09-28T12:19:19.796Z,18.23
2022-09-28T12:21:51.213Z,18.43
2022-09-28T12:24:21.024Z,18.49
2022-09-28T12:26:51.076Z,18.31
2022-09-28T12:29:21.702Z,18.40
2022-09-28T12:31:54.987Z,18.56
2022-09-28T12:34:22.902Z,18.61
2022-09-28T12:36:59.992Z,18.62
2022-09-28T12:39:57.093Z,18.60
2022-09-28T12:42:44.213Z,18.63
2022-09-28T12:45:59.738Z,18.65
2022-09-28T12:48:36.143Z,18.57
2022-09-28T12:51:09.165Z,18.53
2022-09-28T12:54:00.125Z,18.57
2022-09-28T12:56:30.755Z,18.35
2022-09-28T12:59:05.192Z,18.51
2022-09-28T13:01:40.685Z,18.31
2022-09-28T13:04:19.080Z,18.58
2022-09-28T13:06:54.506Z,18.67
2022-09-28T13:09:24.165Z,18.76
2022-09-28T13:11:56.804Z,18.79
2022-09-28T13:14:51.303Z,18.82
2022-09-28T13:17:21.305Z,18.74
2022-09-28T13:19:51.816Z,18.67
2022-09-28T13:22:27.982Z,18.58
2022-09-28T13:24:57.701Z,18.48
2022-09-28T13:27:29.522Z,18.31
2022-09-28T13:29:58.799Z,18.23
2022-09-28T13:32:29.874Z,18.08
2022-09-28T13:34:57.541Z,17.99
2022-09-28T13:37:25.984Z,17.76
2022-09-28T13:39:55.089Z,17.76
2022-09-28T13:42:51.858Z,17.75
2022-09-28T13:45:51.650Z,17.82
2022-09-28T13:48:20.542Z,17.85
2022-09-28T13:51:10.853Z,17.97
2022-09-28T13:53:48.423Z,17.96
2022-09-28T13:56:24.526Z,17.98
2022-09-28T13:58:54.712Z,17.96
2022-09-28T14:01:32.618Z,17.86
2022-09-28T14:04:12.575Z,17.87
2022-09-28T14:06:49.437Z,17.86
2022-09-28T14:09:28.086Z,17.82
2022-09-28T14:11:58.769Z,18.00
2022-09-28T14:14:46.503Z,18.06
2022-09-28T14:17:50.056Z,18.13
2022-09-28T14:20:18.805Z,18.13
2022-09-28T14:22:55.173Z,18.04
2022-09-28T14:25:24.321Z,18.34
2022-09-28T14:28:13.819Z,18.45
2022-09-28T14:30:50.570Z,18.56
2022-09-28T14:33:24.549Z,18.66
2022-09-28T14:35:56.289Z,18.80
2022-09-28T14:38:43.480Z,18.90
2022-09-28T14:41:17.423Z,18.90
2022-09-28T14:44:02.615Z,18.83
2022-09-28T14:46:33.487Z,18.71
2022-09-28T14:49:03.445Z,17.98
2022-09-28T14:52:03.141Z,18.65
2022-09-28T14:54:39.205Z,18.51
2022-09-28T14:57:09.258Z,18.45
2022-09-28T14:59:42.777Z,18.36
2022-09-28T15:02:17.297Z,18.22
2022-09-28T15:04:46.656Z,18.05
2022-09-28T15:07:20.110Z,17.82
2022-09-28T15:09:49.609Z,17.70
2022-09-28T15:12:17.996Z,17.43
2022-09-28T15:14:48.610Z,17.37
2022-09-28T15:17:21.721Z,17.34
2022-09-28T15:19:58.257Z,17.16
2022-09-28T15:22:26.103Z,17.14
2022-09-28T15:25:00.007Z,16.89
2022-09-28T15:27:35.905Z,16.88
2022-09-28T15:30:18.217Z,16.76
2022-09-28T15:32:47.397Z,16.67
2022-09-28T15:35:20.422Z,16.39
2022-09-28T15:37:50.123Z,16.29
2022-09-28T15:40:26.635Z,16.08
2022-09-28T15:42:59.085Z,15.94
2022-09-28T15:45:28.646Z,15.80
2022-09-28T15:48:14.683Z,15.63
2022-09-28T15:50:45.738Z,15.47
2022-09-28T15:53:17.310Z,15.29
2022-09-28T15:55:45.038Z,15.28
2022-09-28T15:58:17.104Z,15.21
2022-09-28T16:00:45.076Z,15.15
2022-09-28T16:03:24.684Z,15.07
2022-09-28T16:05:53.150Z,14.87
2022-09-28T16:08:25.518Z,14.99
2022-09-28T16:10:55.825Z,14.99
2022-09-28T16:13:24.307Z,14.99
2022-09-28T16:15:57.972Z,14.98
2022-09-28T16:18:27.609Z,15.03
2022-09-28T16:20:58.219Z,15.10
2022-09-28T16:23:27.322Z,15.11
2022-09-28T16:25:57.172Z,15.12
2022-09-28T16:28:48.714Z,15.13
2022-09-28T16:31:33.590Z,14.96
2022-09-28T16:34:11.748Z,15.18
2022-09-28T16:36:45.441Z,15.19
2022-09-28T16:39:13.706Z,15.21
2022-09-28T16:41:41.600Z,15.24
2022-09-28T16:44:14.981Z,15.20
2022-09-28T16:46:42.782Z,15.26
2022-09-28T16:49:18.696Z,15.22
2022-09-28T16:51:47.333Z,15.20
2022-09-28T16:54:33.336Z,15.14
2022-09-28T16:57:01.881Z,15.17
2022-09-28T16:59:30.124Z,15.17
2022-09-28T17:01:58.473Z,15.14
2022-09-28T17:04:27.711Z,15.13
2022-09-28T17:06:55.837Z,15.11
2022-09-28T17:09:23.492Z,15.11
2022-09-28T17:11:56.128Z,15.11
2022-09-28T17:14:24.581Z,15.02
2022-09-28T17:17:12.533Z,15.10
2022-09-28T17:19:43.084Z,15.04
2022-09-28T17:22:11.082Z,15.17
2022-09-28T17:27:07.816Z,13.46
2022-09-28T17:29:35.677Z,13.98
2022-09-28T17:32:05.039Z,12.59
2022-09-28T17:34:32.860Z,12.64
2022-09-28T17:37:06.160Z,12.85
2022-09-28T17:39:35.024Z,13.58
2022-09-28T17:42:03.062Z,12.53
2022-09-28T17:44:30.947Z,12.61
2022-09-28T17:46:59.305Z,13.46
2022-09-28T17:49:27.239Z,14.47
2022-09-28T17:51:55.497Z,13.48
2022-09-28T17:54:29.044Z,14.46
2022-09-28T17:56:57.046Z,13.50
2022-09-28T17:59:26.733Z,14.31
2022-09-28T18:01:58.405Z,12.62
2022-09-28T18:04:50.869Z,13.42
2022-09-28T18:07:16.549Z,12.90
2022-09-28T18:09:45.936Z,12.35
2022-09-28T18:12:13.955Z,13.15
2022-09-28T18:14:42.224Z,13.65
2022-09-28T18:17:10.681Z,13.22
2022-09-28T18:19:38.599Z,12.20
2022-09-28T18:22:06.480Z,13.04
2022-09-28T18:24:34.297Z,14.77
2022-09-28T18:27:03.641Z,14.14
2022-09-28T18:29:33.460Z,13.58
2022-09-28T18:32:01.694Z,13.50
2022-09-28T18:34:29.522Z,13.33
2022-09-28T18:36:57.604Z,12.91
2022-09-28T18:39:26.550Z,13.23
2022-09-28T18:41:55.759Z,13.53
2022-09-28T18:44:25.247Z,13.45
2022-09-28T18:46:53.627Z,13.20
2022-09-28T18:49:21.563Z,13.85
2022-09-28T18:51:49.418Z,12.46
2022-09-28T18:54:17.392Z,13.96
2022-09-28T18:56:47.910Z,12.00
2022-09-28T18:59:18.053Z,13.53
2022-09-28T19:01:48.696Z,13.29
2022-09-28T19:04:24.010Z,13.35
2022-09-28T19:06:54.530Z,13.14
2022-09-28T19:09:24.837Z,13.18
2022-09-28T19:12:31.961Z,13.23
2022-09-28T19:21:29.018Z,13.01
2022-09-28T19:24:04.186Z,11.67
2022-09-28T19:29:17.765Z,13.60
2022-09-28T19:31:46.016Z,13.31
2022-09-28T19:34:15.419Z,13.63
2022-09-28T19:36:43.519Z,13.43
2022-09-28T19:39:14.151Z,13.50
2022-09-28T19:41:44.403Z,13.42
2022-09-28T19:44:15.747Z,13.59
2022-09-28T19:46:43.811Z,13.60
2022-09-28T19:49:12.506Z,13.57
2022-09-28T19:52:01.569Z,13.44
2022-09-28T19:54:36.323Z,13.46
2022-09-28T19:57:07.457Z,13.51
2022-09-28T19:59:38.948Z,12.73
2022-09-28T20:02:06.857Z,13.48
2022-09-28T20:04:34.637Z,13.41
2022-09-28T20:07:03.654Z,13.45
2022-09-28T20:09:31.579Z,13.14
2022-09-28T20:11:59.231Z,13.43
2022-09-28T20:14:32.890Z,13.43
2022-09-28T20:17:02.795Z,13.01
2022-09-28T20:19:30.680Z,13.41
2022-09-28T20:21:59.492Z,13.06
2022-09-28T20:24:29.301Z,13.37
2022-09-28T20:26:57.838Z,13.33
2022-09-28T20:29:26.652Z,12.89
2022-09-28T20:31:54.894Z,12.98
2022-09-28T20:34:26.390Z,12.69
2022-09-28T20:36:54.136Z,12.95
2022-09-28T20:39:21.935Z,13.11
2022-09-28T20:41:57.755Z,13.06
2022-09-28T20:44:25.523Z,13.14
2022-09-28T20:46:53.432Z,13.12
2022-09-28T20:49:21.649Z,12.84
2022-09-28T20:51:51.123Z,13.07
2022-09-28T20:54:18.954Z,12.91
2022-09-28T20:56:48.170Z,12.90
2022-09-28T20:59:17.259Z,12.95
2022-09-28T21:01:44.967Z,12.92
2022-09-28T21:04:12.786Z,12.84
2022-09-28T21:06:44.002Z,12.79
2022-09-28T21:09:12.099Z,12.68
2022-09-28T21:11:40.202Z,12.75
2022-09-28T21:14:08.595Z,12.74
2022-09-28T21:16:37.768Z,12.71
2022-09-28T21:19:05.606Z,12.74
2022-09-28T21:21:35.335Z,12.75
2022-09-28T21:24:03.141Z,12.76
2022-09-28T21:26:31.137Z,12.78
2022-09-28T21:28:59.327Z,12.81
2022-09-28T21:31:29.386Z,12.83
2022-09-28T21:33:58.626Z,12.81
2022-09-28T21:36:26.299Z,12.85
2022-09-28T21:38:54.998Z,12.84
2022-09-28T21:41:22.624Z,12.84
2022-09-28T21:43:50.208Z,12.77
2022-09-28T21:46:20.114Z,12.77
2022-09-28T21:48:51.356Z,12.76
2022-09-28T21:51:20.398Z,12.73
2022-09-28T21:53:49.058Z,12.67
2022-09-28T21:56:16.780Z,12.67
2022-09-28T21:58:44.373Z,12.62
2022-09-28T22:01:14.482Z,12.60
2022-09-28T22:03:43.906Z,12.61
2022-09-28T22:06:11.979Z,12.43
2022-09-28T22:08:41.059Z,12.58
2022-09-28T22:11:09.779Z,12.55
2022-09-28T22:13:39.901Z,12.33
2022-09-28T22:16:08.209Z,12.55
2022-09-28T22:18:35.878Z,12.53
2022-09-28T22:21:04.234Z,12.43
2022-09-28T22:23:31.868Z,12.52
2022-09-28T22:26:01.534Z,12.49
2022-09-28T22:28:30.119Z,12.16
2022-09-28T22:30:58.129Z,12.50
2022-09-28T22:33:25.969Z,12.46
2022-09-28T22:35:53.578Z,12.46
2022-09-28T22:38:21.480Z,12.47
2022-09-28T22:40:49.972Z,12.33
2022-09-28T22:43:19.807Z,12.44
2022-09-28T22:45:47.597Z,12.43
2022-09-28T22:48:15.296Z,12.42
2022-09-28T22:50:49.673Z,12.31
2022-09-28T22:53:17.289Z,12.38
2022-09-28T22:55:45.091Z,12.38
2022-09-28T22:58:15.653Z,12.36
2022-09-28T23:00:45.637Z,12.33
2022-09-28T23:03:13.449Z,12.30
2022-09-28T23:05:41.186Z,12.28
2022-09-28T23:08:08.754Z,12.27
2022-09-28T23:10:36.388Z,12.24
2022-09-28T23:13:04.001Z,12.19
2022-09-28T23:15:32.405Z,12.24
2022-09-28T23:18:01.334Z,12.21
2022-09-28T23:20:29.018Z,12.23
2022-09-28T23:22:56.564Z,12.23
2022-09-28T23:27:51.939Z,12.27
2022-09-28T23:30:21.531Z,12.28
2022-09-28T23:32:49.622Z,12.33
2022-09-28T23:35:18.683Z,12.29
2022-09-28T23:37:50.544Z,12.33
2022-09-28T23:40:18.343Z,12.32
2022-09-28T23:42:46.095Z,12.30
2022-09-28T23:45:13.845Z,12.25
2022-09-28T23:47:41.474Z,12.20
2022-09-28T23:50:10.025Z,12.21
2022-09-28T23:52:39.017Z,12.22
2022-09-28T23:55:07.530Z,12.07
2022-09-28T23:57:35.208Z,12.11
